sensor_id;sensor_type;location;lat;lon;timestamp;P1;durP1;ratioP1;P2;durP2;ratioP2
54121;SDS011;40029;58.708;50.190;2022-07-12T00:01:09;36.60;;;26.33;;
54121;SDS011;40029;58.708;50.190;2022-07-12T00:03:41;28.40;;;25.08;;
54121;SDS011;40029;58.708;50.190;2022-07-12T00:06:12;29.80;;;26.67;;
54121;SDS011;40029;58.708;50.190;2022-07-12T00:08:43;31.42;;;26.42;;
54121;SDS011;40029;58.708;50.190;2022-07-12T00:11:14;33.67;;;26.02;;
54121;SDS011;40029;58.708;50.190;2022-07-12T00:13:45;31.48;;;26.63;;
54121;SDS011;40029;58.708;50.190;2022-07-12T00:16:16;37.75;;;27.50;;
54121;SDS011;40029;58.708;50.190;2022-07-12T00:18:47;32.17;;;26.58;;
54121;SDS011;40029;58.708;50.190;2022-07-12T00:21:18;33.92;;;26.50;;
54121;SDS011;40029;58.708;50.190;2022-07-12T00:23:49;30.48;;;27.25;;
54121;SDS011;40029;58.708;50.190;2022-07-12T00:26:20;29.77;;;26.73;;
54121;SDS011;40029;58.708;50.190;2022-07-12T00:28:51;33.97;;;27.00;;
54121;SDS011;40029;58.708;50.190;2022-07-12T00:31:22;29.25;;;26.10;;
54121;SDS011;40029;58.708;50.190;2022-07-12T00:33:54;28.40;;;25.23;;
54121;SDS011;40029;58.708;50.190;2022-07-12T00:36:25;33.58;;;25.63;;
54121;SDS011;40029;58.708;50.190;2022-07-12T00:38:56;27.75;;;24.77;;
54121;SDS011;40029;58.708;50.190;2022-07-12T00:41:27;31.92;;;25.92;;
54121;SDS011;40029;58.708;50.190;2022-07-12T00:43:58;30.40;;;24.27;;
54121;SDS011;40029;58.708;50.190;2022-07-12T00:46:29;30.98;;;25.00;;
54121;SDS011;40029;58.708;50.190;2022-07-12T00:49:01;30.38;;;25.58;;
54121;SDS011;40029;58.708;50.190;2022-07-12T00:51:32;32.67;;;26.40;;
54121;SDS011;40029;58.708;50.190;2022-07-12T00:54:03;33.35;;;26.55;;
54121;SDS011;40029;58.708;50.190;2022-07-12T00:56:36;30.48;;;26.40;;
54121;SDS011;40029;58.708;50.190;2022-07-12T00:59:07;30.50;;;26.50;;
54121;SDS011;40029;58.708;50.190;2022-07-12T01:01:38;35.55;;;28.05;;
54121;SDS011;40029;58.708;50.190;2022-07-12T01:04:11;43.30;;;25.77;;
54121;SDS011;40029;58.708;50.190;2022-07-12T01:06:42;38.42;;;25.30;;
54121;SDS011;40029;58.708;50.190;2022-07-12T01:09:13;39.85;;;24.88;;
54121;SDS011;40029;58.708;50.190;2022-07-12T01:11:44;37.28;;;25.00;;
54121;SDS011;40029;58.708;50.190;2022-07-12T01:14:16;36.50;;;26.35;;
54121;SDS011;40029;58.708;50.190;2022-07-12T01:16:47;32.42;;;26.17;;
54121;SDS011;40029;58.708;50.190;2022-07-12T01:19:20;34.55;;;25.67;;
54121;SDS011;40029;58.708;50.190;2022-07-12T01:21:51;31.55;;;26.15;;
54121;SDS011;40029;58.708;50.190;2022-07-12T01:24:27;31.85;;;26.73;;
54121;SDS011;40029;58.708;50.190;2022-07-12T01:26:58;38.20;;;27.17;;
54121;SDS011;40029;58.708;50.190;2022-07-12T01:29:29;29.70;;;26.10;;
54121;SDS011;40029;58.708;50.190;2022-07-12T01:32:02;29.80;;;26.60;;
54121;SDS011;40029;58.708;50.190;2022-07-12T01:34:54;34.45;;;27.42;;
54121;SDS011;40029;58.708;50.190;2022-07-12T01:37:44;33.00;;;26.60;;
54121;SDS011;40029;58.708;50.190;2022-07-12T01:40:16;30.85;;;27.55;;
54121;SDS011;40029;58.708;50.190;2022-07-12T01:42:47;29.45;;;26.20;;
54121;SDS011;40029;58.708;50.190;2022-07-12T01:45:18;29.67;;;25.05;;
54121;SDS011;40029;58.708;50.190;2022-07-12T01:47:50;31.92;;;24.67;;
54121;SDS011;40029;58.708;50.190;2022-07-12T01:50:21;29.83;;;25.85;;
54121;SDS011;40029;58.708;50.190;2022-07-12T01:52:52;28.02;;;25.02;;
54121;SDS011;40029;58.708;50.190;2022-07-12T01:55:23;27.48;;;24.55;;
54121;SDS011;40029;58.708;50.190;2022-07-12T01:57:54;27.88;;;24.83;;
54121;SDS011;40029;58.708;50.190;2022-07-12T02:00:26;26.70;;;23.60;;
54121;SDS011;40029;58.708;50.190;2022-07-12T02:02:57;35.38;;;23.95;;
54121;SDS011;40029;58.708;50.190;2022-07-12T02:05:28;28.15;;;25.15;;
54121;SDS011;40029;58.708;50.190;2022-07-12T02:07:59;28.65;;;22.85;;
54121;SDS011;40029;58.708;50.190;2022-07-12T02:10:30;29.92;;;24.73;;
54121;SDS011;40029;58.708;50.190;2022-07-12T02:13:05;30.02;;;24.95;;
54121;SDS011;40029;58.708;50.190;2022-07-12T02:15:36;27.70;;;24.85;;
54121;SDS011;40029;58.708;50.190;2022-07-12T02:18:07;26.50;;;23.58;;
54121;SDS011;40029;58.708;50.190;2022-07-12T02:20:38;26.08;;;23.42;;
54121;SDS011;40029;58.708;50.190;2022-07-12T02:23:09;27.83;;;24.80;;
54121;SDS011;40029;58.708;50.190;2022-07-12T02:25:40;28.88;;;23.83;;
54121;SDS011;40029;58.708;50.190;2022-07-12T02:28:11;29.48;;;24.15;;
54121;SDS011;40029;58.708;50.190;2022-07-12T02:30:42;27.30;;;24.48;;
54121;SDS011;40029;58.708;50.190;2022-07-12T02:33:13;26.92;;;24.15;;
54121;SDS011;40029;58.708;50.190;2022-07-12T02:35:46;35.33;;;23.30;;
54121;SDS011;40029;58.708;50.190;2022-07-12T02:38:17;26.35;;;23.27;;
54121;SDS011;40029;58.708;50.190;2022-07-12T02:40:50;26.25;;;23.45;;
54121;SDS011;40029;58.708;50.190;2022-07-12T02:43:24;26.05;;;23.00;;
54121;SDS011;40029;58.708;50.190;2022-07-12T02:46:04;25.35;;;21.48;;
54121;SDS011;40029;58.708;50.190;2022-07-12T02:48:40;24.98;;;22.45;;
54121;SDS011;40029;58.708;50.190;2022-07-12T02:51:11;33.97;;;23.10;;
54121;SDS011;40029;58.708;50.190;2022-07-12T02:53:42;30.35;;;22.98;;
54121;SDS011;40029;58.708;50.190;2022-07-12T02:56:13;35.00;;;22.80;;
54121;SDS011;40029;58.708;50.190;2022-07-12T02:58:44;41.63;;;24.58;;
54121;SDS011;40029;58.708;50.190;2022-07-12T03:01:15;26.23;;;23.50;;
54121;SDS011;40029;58.708;50.190;2022-07-12T03:03:46;30.65;;;23.20;;
54121;SDS011;40029;58.708;50.190;2022-07-12T03:06:18;25.67;;;23.00;;
54121;SDS011;40029;58.708;50.190;2022-07-12T03:08:49;26.13;;;23.08;;
54121;SDS011;40029;58.708;50.190;2022-07-12T03:11:20;27.88;;;21.98;;
54121;SDS011;40029;58.708;50.190;2022-07-12T03:13:51;24.92;;;22.45;;
54121;SDS011;40029;58.708;50.190;2022-07-12T03:16:22;24.55;;;21.90;;
54121;SDS011;40029;58.708;50.190;2022-07-12T03:18:54;25.10;;;22.20;;
54121;SDS011;40029;58.708;50.190;2022-07-12T03:21:27;30.00;;;22.70;;
54121;SDS011;40029;58.708;50.190;2022-07-12T03:23:59;27.95;;;22.60;;
54121;SDS011;40029;58.708;50.190;2022-07-12T03:26:29;24.85;;;22.00;;
54121;SDS011;40029;58.708;50.190;2022-07-12T03:29:00;25.02;;;22.63;;
54121;SDS011;40029;58.708;50.190;2022-07-12T03:31:31;38.80;;;22.08;;
54121;SDS011;40029;58.708;50.190;2022-07-12T03:34:02;25.60;;;22.08;;
54121;SDS011;40029;58.708;50.190;2022-07-12T03:36:34;24.15;;;21.75;;
54121;SDS011;40029;58.708;50.190;2022-07-12T03:39:05;29.48;;;22.67;;
54121;SDS011;40029;58.708;50.190;2022-07-12T03:41:36;24.77;;;22.23;;
54121;SDS011;40029;58.708;50.190;2022-07-12T03:44:06;38.50;;;22.83;;
54121;SDS011;40029;58.708;50.190;2022-07-12T03:46:37;43.30;;;23.02;;
54121;SDS011;40029;58.708;50.190;2022-07-12T03:49:08;24.83;;;22.15;;
54121;SDS011;40029;58.708;50.190;2022-07-12T03:51:40;27.98;;;22.45;;
54121;SDS011;40029;58.708;50.190;2022-07-12T03:54:11;26.85;;;21.88;;
54121;SDS011;40029;58.708;50.190;2022-07-12T03:56:42;28.42;;;22.92;;
54121;SDS011;40029;58.708;50.190;2022-07-12T03:59:31;30.30;;;23.08;;
54121;SDS011;40029;58.708;50.190;2022-07-12T04:02:02;26.83;;;23.95;;
54121;SDS011;40029;58.708;50.190;2022-07-12T04:04:33;26.40;;;21.73;;
54121;SDS011;40029;58.708;50.190;2022-07-12T04:07:04;31.15;;;21.98;;
54121;SDS011;40029;58.708;50.190;2022-07-12T04:09:36;24.60;;;22.13;;
54121;SDS011;40029;58.708;50.190;2022-07-12T04:12:07;33.28;;;22.80;;
54121;SDS011;40029;58.708;50.190;2022-07-12T04:14:39;32.53;;;23.33;;
54121;SDS011;40029;58.708;50.190;2022-07-12T04:17:09;27.50;;;22.98;;
54121;SDS011;40029;58.708;50.190;2022-07-12T04:19:40;44.90;;;24.23;;
54121;SDS011;40029;58.708;50.190;2022-07-12T04:22:11;44.40;;;27.95;;
54121;SDS011;40029;58.708;50.190;2022-07-12T04:24:43;48.03;;;23.60;;
54121;SDS011;40029;58.708;50.190;2022-07-12T04:27:14;27.27;;;22.52;;
54121;SDS011;40029;58.708;50.190;2022-07-12T04:29:45;30.05;;;21.63;;
54121;SDS011;40029;58.708;50.190;2022-07-12T04:32:16;30.38;;;22.45;;
54121;SDS011;40029;58.708;50.190;2022-07-12T04:34:47;24.92;;;22.23;;
54121;SDS011;40029;58.708;50.190;2022-07-12T04:37:18;25.92;;;20.90;;
54121;SDS011;40029;58.708;50.190;2022-07-12T04:39:49;46.95;;;23.58;;
54121;SDS011;40029;58.708;50.190;2022-07-12T04:42:20;37.90;;;23.15;;
54121;SDS011;40029;58.708;50.190;2022-07-12T04:44:51;24.23;;;21.60;;
54121;SDS011;40029;58.708;50.190;2022-07-12T04:47:22;26.55;;;20.60;;
54121;SDS011;40029;58.708;50.190;2022-07-12T04:49:53;44.47;;;22.65;;
54121;SDS011;40029;58.708;50.190;2022-07-12T04:52:24;43.63;;;22.30;;
54121;SDS011;40029;58.708;50.190;2022-07-12T04:54:55;38.58;;;21.40;;
54121;SDS011;40029;58.708;50.190;2022-07-12T04:57:26;23.20;;;20.70;;
54121;SDS011;40029;58.708;50.190;2022-07-12T04:59:57;21.98;;;19.83;;
54121;SDS011;40029;58.708;50.190;2022-07-12T05:02:28;25.10;;;21.63;;
54121;SDS011;40029;58.708;50.190;2022-07-12T05:04:59;24.08;;;21.60;;
54121;SDS011;40029;58.708;50.190;2022-07-12T05:07:30;28.33;;;20.30;;
54121;SDS011;40029;58.708;50.190;2022-07-12T05:10:01;26.08;;;21.30;;
54121;SDS011;40029;58.708;50.190;2022-07-12T05:12:34;36.88;;;21.38;;
54121;SDS011;40029;58.708;50.190;2022-07-12T05:15:07;28.13;;;20.73;;
54121;SDS011;40029;58.708;50.190;2022-07-12T05:17:38;30.27;;;20.23;;
54121;SDS011;40029;58.708;50.190;2022-07-12T05:20:09;23.73;;;19.13;;
54121;SDS011;40029;58.708;50.190;2022-07-12T05:22:40;39.67;;;21.15;;
54121;SDS011;40029;58.708;50.190;2022-07-12T05:25:14;33.95;;;19.88;;
54121;SDS011;40029;58.708;50.190;2022-07-12T05:27:46;32.28;;;20.20;;
54121;SDS011;40029;58.708;50.190;2022-07-12T05:30:17;23.45;;;19.40;;
54121;SDS011;40029;58.708;50.190;2022-07-12T05:32:48;19.73;;;17.75;;
54121;SDS011;40029;58.708;50.190;2022-07-12T05:35:19;20.17;;;18.02;;
54121;SDS011;40029;58.708;50.190;2022-07-12T05:37:51;23.67;;;19.40;;
54121;SDS011;40029;58.708;50.190;2022-07-12T05:40:22;20.02;;;18.02;;
54121;SDS011;40029;58.708;50.190;2022-07-12T05:42:53;20.60;;;18.50;;
54121;SDS011;40029;58.708;50.190;2022-07-12T05:45:24;20.10;;;18.00;;
54121;SDS011;40029;58.708;50.190;2022-07-12T05:47:55;23.88;;;19.10;;
54121;SDS011;40029;58.708;50.190;2022-07-12T05:50:26;22.10;;;19.90;;
54121;SDS011;40029;58.708;50.190;2022-07-12T05:52:57;30.02;;;19.27;;
54121;SDS011;40029;58.708;50.190;2022-07-12T05:55:47;25.50;;;19.52;;
54121;SDS011;40029;58.708;50.190;2022-07-12T05:58:20;21.55;;;18.98;;
54121;SDS011;40029;58.708;50.190;2022-07-12T06:00:51;21.77;;;19.60;;
54121;SDS011;40029;58.708;50.190;2022-07-12T06:03:22;20.92;;;18.75;;
54121;SDS011;40029;58.708;50.190;2022-07-12T06:05:53;25.10;;;19.83;;
54121;SDS011;40029;58.708;50.190;2022-07-12T06:08:24;23.15;;;19.77;;
54121;SDS011;40029;58.708;50.190;2022-07-12T06:10:55;21.17;;;19.17;;
54121;SDS011;40029;58.708;50.190;2022-07-12T06:13:27;21.35;;;19.35;;
54121;SDS011;40029;58.708;50.190;2022-07-12T06:15:59;21.42;;;19.30;;
54121;SDS011;40029;58.708;50.190;2022-07-12T06:18:30;33.83;;;20.77;;
54121;SDS011;40029;58.708;50.190;2022-07-12T06:21:01;27.58;;;19.30;;
54121;SDS011;40029;58.708;50.190;2022-07-12T06:23:32;31.33;;;20.00;;
54121;SDS011;40029;58.708;50.190;2022-07-12T06:26:03;22.80;;;20.35;;
54121;SDS011;40029;58.708;50.190;2022-07-12T06:28:34;23.63;;;20.42;;
54121;SDS011;40029;58.708;50.190;2022-07-12T06:31:05;23.35;;;20.73;;
54121;SDS011;40029;58.708;50.190;2022-07-12T06:33:36;28.92;;;20.42;;
54121;SDS011;40029;58.708;50.190;2022-07-12T06:36:07;33.08;;;21.33;;
54121;SDS011;40029;58.708;50.190;2022-07-12T06:38:38;25.00;;;21.58;;
54121;SDS011;40029;58.708;50.190;2022-07-12T06:41:09;21.98;;;19.83;;
54121;SDS011;40029;58.708;50.190;2022-07-12T06:43:40;21.77;;;19.58;;
54121;SDS011;40029;58.708;50.190;2022-07-12T06:46:11;26.40;;;20.73;;
54121;SDS011;40029;58.708;50.190;2022-07-12T06:48:42;30.42;;;21.35;;
54121;SDS011;40029;58.708;50.190;2022-07-12T06:51:13;22.00;;;19.75;;
54121;SDS011;40029;58.708;50.190;2022-07-12T06:53:44;22.00;;;19.85;;
54121;SDS011;40029;58.708;50.190;2022-07-12T06:56:14;23.38;;;20.55;;
54121;SDS011;40029;58.708;50.190;2022-07-12T06:58:45;33.50;;;20.98;;
54121;SDS011;40029;58.708;50.190;2022-07-12T07:01:16;26.20;;;21.23;;
54121;SDS011;40029;58.708;50.190;2022-07-12T07:03:47;25.75;;;21.30;;
54121;SDS011;40029;58.708;50.190;2022-07-12T07:06:18;24.38;;;21.92;;
54121;SDS011;40029;58.708;50.190;2022-07-12T07:08:49;22.98;;;20.48;;
54121;SDS011;40029;58.708;50.190;2022-07-12T07:11:20;29.50;;;21.95;;
54121;SDS011;40029;58.708;50.190;2022-07-12T07:13:51;23.80;;;21.30;;
54121;SDS011;40029;58.708;50.190;2022-07-12T07:16:24;28.38;;;22.92;;
54121;SDS011;40029;58.708;50.190;2022-07-12T07:18:55;23.15;;;19.77;;
54121;SDS011;40029;58.708;50.190;2022-07-12T07:21:26;23.38;;;20.23;;
54121;SDS011;40029;58.708;50.190;2022-07-12T07:23:57;23.85;;;20.08;;
54121;SDS011;40029;58.708;50.190;2022-07-12T07:26:28;24.67;;;21.38;;
54121;SDS011;40029;58.708;50.190;2022-07-12T07:29:00;42.65;;;20.73;;
54121;SDS011;40029;58.708;50.190;2022-07-12T07:31:49;22.20;;;20.10;;
54121;SDS011;40029;58.708;50.190;2022-07-12T07:34:20;32.80;;;20.95;;
54121;SDS011;40029;58.708;50.190;2022-07-12T07:36:52;22.10;;;19.60;;
54121;SDS011;40029;58.708;50.190;2022-07-12T07:39:23;21.45;;;18.98;;
54121;SDS011;40029;58.708;50.190;2022-07-12T07:41:54;27.85;;;21.27;;
54121;SDS011;40029;58.708;50.190;2022-07-12T07:44:25;37.92;;;19.38;;
54121;SDS011;40029;58.708;50.190;2022-07-12T07:46:56;28.77;;;19.98;;
54121;SDS011;40029;58.708;50.190;2022-07-12T07:49:27;22.08;;;19.85;;
54121;SDS011;40029;58.708;50.190;2022-07-12T07:51:58;31.48;;;22.15;;
54121;SDS011;40029;58.708;50.190;2022-07-12T07:54:29;36.13;;;20.98;;
54121;SDS011;40029;58.708;50.190;2022-07-12T07:57:00;22.20;;;19.58;;
54121;SDS011;40029;58.708;50.190;2022-07-12T07:59:31;21.17;;;19.27;;
54121;SDS011;40029;58.708;50.190;2022-07-12T08:02:02;26.63;;;20.45;;
54121;SDS011;40029;58.708;50.190;2022-07-12T08:04:33;31.70;;;21.50;;
54121;SDS011;40029;58.708;50.190;2022-07-12T08:07:04;32.83;;;20.95;;
54121;SDS011;40029;58.708;50.190;2022-07-12T08:09:35;23.25;;;20.80;;
54121;SDS011;40029;58.708;50.190;2022-07-12T08:12:06;29.80;;;20.60;;
54121;SDS011;40029;58.708;50.190;2022-07-12T08:14:38;22.10;;;19.77;;
54121;SDS011;40029;58.708;50.190;2022-07-12T08:17:09;22.65;;;20.33;;
54121;SDS011;40029;58.708;50.190;2022-07-12T08:19:40;24.38;;;20.58;;
54121;SDS011;40029;58.708;50.190;2022-07-12T08:22:10;23.60;;;20.77;;
54121;SDS011;40029;58.708;50.190;2022-07-12T08:24:42;26.67;;;20.88;;
54121;SDS011;40029;58.708;50.190;2022-07-12T08:27:12;25.33;;;20.08;;
54121;SDS011;40029;58.708;50.190;2022-07-12T08:29:43;22.80;;;20.38;;
54121;SDS011;40029;58.708;50.190;2022-07-12T08:32:14;23.55;;;19.45;;
54121;SDS011;40029;58.708;50.190;2022-07-12T08:34:46;31.42;;;19.83;;
54121;SDS011;40029;58.708;50.190;2022-07-12T08:37:17;30.20;;;20.10;;
54121;SDS011;40029;58.708;50.190;2022-07-12T08:39:48;35.67;;;20.48;;
54121;SDS011;40029;58.708;50.190;2022-07-12T08:42:19;26.70;;;18.92;;
54121;SDS011;40029;58.708;50.190;2022-07-12T08:44:53;25.63;;;19.55;;
54121;SDS011;40029;58.708;50.190;2022-07-12T08:47:25;23.88;;;18.58;;
54121;SDS011;40029;58.708;50.190;2022-07-12T08:50:12;22.30;;;18.35;;
54121;SDS011;40029;58.708;50.190;2022-07-12T08:52:48;19.52;;;17.42;;
54121;SDS011;40029;58.708;50.190;2022-07-12T08:55:22;34.63;;;17.50;;
54121;SDS011;40029;58.708;50.190;2022-07-12T08:57:54;21.35;;;17.20;;
54121;SDS011;40029;58.708;50.190;2022-07-12T09:00:27;19.35;;;17.15;;
54121;SDS011;40029;58.708;50.190;2022-07-12T09:03:00;25.35;;;17.65;;
54121;SDS011;40029;58.708;50.190;2022-07-12T09:05:34;25.02;;;17.55;;
54121;SDS011;40029;58.708;50.190;2022-07-12T09:13:21;24.10;;;17.00;;
54121;SDS011;40029;58.708;50.190;2022-07-12T09:16:23;20.55;;;16.98;;
54121;SDS011;40029;58.708;50.190;2022-07-12T09:19:15;27.40;;;16.20;;
54121;SDS011;40029;58.708;50.190;2022-07-12T09:21:50;19.70;;;17.60;;
54121;SDS011;40029;58.708;50.190;2022-07-12T09:24:26;21.13;;;17.13;;
54121;SDS011;40029;58.708;50.190;2022-07-12T09:27:01;30.58;;;17.77;;
54121;SDS011;40029;58.708;50.190;2022-07-12T09:29:45;25.15;;;17.52;;
54121;SDS011;40029;58.708;50.190;2022-07-12T09:32:20;19.95;;;17.35;;
54121;SDS011;40029;58.708;50.190;2022-07-12T09:35:10;26.95;;;17.58;;
54121;SDS011;40029;58.708;50.190;2022-07-12T09:38:09;18.65;;;16.90;;
54121;SDS011;40029;58.708;50.190;2022-07-12T09:40:40;19.05;;;17.15;;
54121;SDS011;40029;58.708;50.190;2022-07-12T09:43:11;25.40;;;18.95;;
54121;SDS011;40029;58.708;50.190;2022-07-12T09:45:46;22.02;;;16.30;;
54121;SDS011;40029;58.708;50.190;2022-07-12T09:48:20;19.25;;;15.68;;
54121;SDS011;40029;58.708;50.190;2022-07-12T09:50:52;18.60;;;14.95;;
54121;SDS011;40029;58.708;50.190;2022-07-12T09:53:30;19.50;;;15.48;;
54121;SDS011;40029;58.708;50.190;2022-07-12T09:56:05;20.27;;;15.38;;
54121;SDS011;40029;58.708;50.190;2022-07-12T09:58:53;18.30;;;15.25;;
54121;SDS011;40029;58.708;50.190;2022-07-12T10:01:26;25.25;;;16.45;;
54121;SDS011;40029;58.708;50.190;2022-07-12T10:04:00;22.52;;;15.95;;
54121;SDS011;40029;58.708;50.190;2022-07-12T10:06:32;29.48;;;15.48;;
54121;SDS011;40029;58.708;50.190;2022-07-12T10:09:04;15.50;;;14.10;;
54121;SDS011;40029;58.708;50.190;2022-07-12T10:11:37;16.50;;;14.23;;
54121;SDS011;40029;58.708;50.190;2022-07-12T10:14:12;25.85;;;14.63;;
54121;SDS011;40029;58.708;50.190;2022-07-12T10:16:43;23.73;;;15.98;;
54121;SDS011;40029;58.708;50.190;2022-07-12T10:19:22;15.80;;;14.23;;
54121;SDS011;40029;58.708;50.190;2022-07-12T10:21:58;18.55;;;16.25;;
54121;SDS011;40029;58.708;50.190;2022-07-12T10:29:44;24.15;;;14.73;;
54121;SDS011;40029;58.708;50.190;2022-07-12T10:35:07;15.43;;;13.93;;
54121;SDS011;40029;58.708;50.190;2022-07-12T10:38:13;22.92;;;14.98;;
54121;SDS011;40029;58.708;50.190;2022-07-12T10:40:44;24.85;;;14.30;;
54121;SDS011;40029;58.708;50.190;2022-07-12T10:43:17;16.20;;;13.48;;
54121;SDS011;40029;58.708;50.190;2022-07-12T10:45:49;16.75;;;14.75;;
54121;SDS011;40029;58.708;50.190;2022-07-12T10:48:22;17.05;;;14.77;;
54121;SDS011;40029;58.708;50.190;2022-07-12T10:50:54;26.98;;;15.43;;
54121;SDS011;40029;58.708;50.190;2022-07-12T10:58:50;16.17;;;13.75;;
54121;SDS011;40029;58.708;50.190;2022-07-12T11:01:28;18.80;;;13.93;;
54121;SDS011;40029;58.708;50.190;2022-07-12T11:06:37;18.92;;;16.52;;
54121;SDS011;40029;58.708;50.190;2022-07-12T11:09:10;18.67;;;16.80;;
54121;SDS011;40029;58.708;50.190;2022-07-12T11:11:43;20.30;;;16.83;;
54121;SDS011;40029;58.708;50.190;2022-07-12T11:14:22;23.23;;;18.08;;
54121;SDS011;40029;58.708;50.190;2022-07-12T11:16:54;24.25;;;19.00;;
54121;SDS011;40029;58.708;50.190;2022-07-12T11:19:27;35.20;;;19.02;;
54121;SDS011;40029;58.708;50.190;2022-07-12T11:22:00;26.92;;;18.50;;
54121;SDS011;40029;58.708;50.190;2022-07-12T11:24:32;24.58;;;17.95;;
54121;SDS011;40029;58.708;50.190;2022-07-12T11:27:03;19.48;;;16.08;;
54121;SDS011;40029;58.708;50.190;2022-07-12T11:29:36;38.63;;;17.10;;
54121;SDS011;40029;58.708;50.190;2022-07-12T11:32:07;20.48;;;15.18;;
54121;SDS011;40029;58.708;50.190;2022-07-12T11:34:38;21.42;;;14.77;;
54121;SDS011;40029;58.708;50.190;2022-07-12T11:37:10;39.25;;;17.50;;
54121;SDS011;40029;58.708;50.190;2022-07-12T11:39:40;22.10;;;15.85;;
54121;SDS011;40029;58.708;50.190;2022-07-12T11:42:11;19.55;;;17.42;;
54121;SDS011;40029;58.708;50.190;2022-07-12T11:47:21;18.67;;;16.75;;
54121;SDS011;40029;58.708;50.190;2022-07-12T11:49:53;16.95;;;15.23;;
54121;SDS011;40029;58.708;50.190;2022-07-12T11:52:25;20.70;;;15.95;;
54121;SDS011;40029;58.708;50.190;2022-07-12T11:54:56;24.52;;;16.40;;
54121;SDS011;40029;58.708;50.190;2022-07-12T11:57:27;19.33;;;15.52;;
54121;SDS011;40029;58.708;50.190;2022-07-12T12:03:06;16.80;;;15.15;;
54121;SDS011;40029;58.708;50.190;2022-07-12T12:05:37;17.25;;;15.23;;
54121;SDS011;40029;58.708;50.190;2022-07-12T12:08:09;30.42;;;15.63;;
54121;SDS011;40029;58.708;50.190;2022-07-12T12:10:42;20.55;;;13.82;;
54121;SDS011;40029;58.708;50.190;2022-07-12T12:13:23;16.70;;;13.88;;
54121;SDS011;40029;58.708;50.190;2022-07-12T12:15:56;28.63;;;14.25;;
54121;SDS011;40029;58.708;50.190;2022-07-12T12:18:31;22.08;;;14.73;;
54121;SDS011;40029;58.708;50.190;2022-07-12T12:21:03;24.80;;;13.90;;
54121;SDS011;40029;58.708;50.190;2022-07-12T12:23:36;15.00;;;13.57;;
54121;SDS011;40029;58.708;50.190;2022-07-12T12:26:12;19.90;;;14.25;;
54121;SDS011;40029;58.708;50.190;2022-07-12T12:28:50;15.18;;;13.60;;
54121;SDS011;40029;58.708;50.190;2022-07-12T12:31:23;15.32;;;14.02;;
54121;SDS011;40029;58.708;50.190;2022-07-12T12:33:54;15.25;;;13.65;;
54121;SDS011;40029;58.708;50.190;2022-07-12T12:36:31;24.02;;;15.48;;
54121;SDS011;40029;58.708;50.190;2022-07-12T12:39:06;27.40;;;14.48;;
54121;SDS011;40029;58.708;50.190;2022-07-12T12:41:40;35.83;;;16.90;;
54121;SDS011;40029;58.708;50.190;2022-07-12T12:44:12;27.70;;;14.82;;
54121;SDS011;40029;58.708;50.190;2022-07-12T12:49:45;70.85;;;19.13;;
54121;SDS011;40029;58.708;50.190;2022-07-12T12:52:17;19.30;;;15.07;;
54121;SDS011;40029;58.708;50.190;2022-07-12T12:54:49;27.33;;;14.48;;
54121;SDS011;40029;58.708;50.190;2022-07-12T12:57:20;19.33;;;14.98;;
54121;SDS011;40029;58.708;50.190;2022-07-12T12:59:52;30.25;;;15.77;;
54121;SDS011;40029;58.708;50.190;2022-07-12T13:02:25;25.95;;;15.98;;
54121;SDS011;40029;58.708;50.190;2022-07-12T13:04:57;31.38;;;16.67;;
54121;SDS011;40029;58.708;50.190;2022-07-12T13:07:28;32.65;;;16.00;;
54121;SDS011;40029;58.708;50.190;2022-07-12T13:09:59;30.30;;;14.70;;
54121;SDS011;40029;58.708;50.190;2022-07-12T13:12:30;43.53;;;16.83;;
54121;SDS011;40029;58.708;50.190;2022-07-12T13:15:01;28.33;;;15.98;;
54121;SDS011;40029;58.708;50.190;2022-07-12T13:17:34;18.63;;;14.02;;
54121;SDS011;40029;58.708;50.190;2022-07-12T13:20:05;31.95;;;14.43;;
54121;SDS011;40029;58.708;50.190;2022-07-12T13:22:38;18.70;;;16.58;;
54121;SDS011;40029;58.708;50.190;2022-07-12T13:25:10;25.58;;;16.42;;
54121;SDS011;40029;58.708;50.190;2022-07-12T13:27:42;23.48;;;16.42;;
54121;SDS011;40029;58.708;50.190;2022-07-12T13:30:14;33.85;;;17.98;;
54121;SDS011;40029;58.708;50.190;2022-07-12T13:32:48;21.55;;;17.90;;
54121;SDS011;40029;58.708;50.190;2022-07-12T13:35:19;83.85;;;20.63;;
54121;SDS011;40029;58.708;50.190;2022-07-12T13:37:50;34.10;;;19.45;;
54121;SDS011;40029;58.708;50.190;2022-07-12T13:40:22;48.88;;;19.55;;
54121;SDS011;40029;58.708;50.190;2022-07-12T13:42:53;27.00;;;18.50;;
54121;SDS011;40029;58.708;50.190;2022-07-12T13:45:24;29.48;;;19.00;;
54121;SDS011;40029;58.708;50.190;2022-07-12T13:47:56;58.10;;;21.65;;
54121;SDS011;40029;58.708;50.190;2022-07-12T13:50:27;29.10;;;20.13;;
54121;SDS011;40029;58.708;50.190;2022-07-12T13:52:59;20.65;;;17.83;;
54121;SDS011;40029;58.708;50.190;2022-07-12T13:55:30;33.08;;;20.20;;
54121;SDS011;40029;58.708;50.190;2022-07-12T13:58:06;27.77;;;20.00;;
54121;SDS011;40029;58.708;50.190;2022-07-12T14:00:37;21.95;;;19.48;;
54121;SDS011;40029;58.708;50.190;2022-07-12T14:03:08;49.30;;;22.02;;
54121;SDS011;40029;58.708;50.190;2022-07-12T14:05:39;43.67;;;19.65;;
54121;SDS011;40029;58.708;50.190;2022-07-12T14:08:10;28.73;;;20.08;;
54121;SDS011;40029;58.708;50.190;2022-07-12T14:10:42;50.10;;;22.77;;
54121;SDS011;40029;58.708;50.190;2022-07-12T14:13:13;28.63;;;19.98;;
54121;SDS011;40029;58.708;50.190;2022-07-12T14:15:44;40.65;;;20.95;;
54121;SDS011;40029;58.708;50.190;2022-07-12T14:18:15;32.67;;;20.70;;
54121;SDS011;40029;58.708;50.190;2022-07-12T14:20:46;22.48;;;19.13;;
54121;SDS011;40029;58.708;50.190;2022-07-12T14:23:17;21.60;;;18.98;;
54121;SDS011;40029;58.708;50.190;2022-07-12T14:25:49;33.15;;;18.95;;
54121;SDS011;40029;58.708;50.190;2022-07-12T14:28:20;33.28;;;18.88;;
54121;SDS011;40029;58.708;50.190;2022-07-12T14:30:51;30.55;;;19.13;;
54121;SDS011;40029;58.708;50.190;2022-07-12T14:33:22;29.33;;;20.20;;
54121;SDS011;40029;58.708;50.190;2022-07-12T14:35:53;19.58;;;17.50;;
54121;SDS011;40029;58.708;50.190;2022-07-12T14:38:24;25.83;;;16.70;;
54121;SDS011;40029;58.708;50.190;2022-07-12T14:40:55;41.03;;;18.65;;
54121;SDS011;40029;58.708;50.190;2022-07-12T14:43:26;33.67;;;17.95;;
54121;SDS011;40029;58.708;50.190;2022-07-12T14:45:57;22.60;;;16.77;;
54121;SDS011;40029;58.708;50.190;2022-07-12T14:48:28;21.33;;;16.17;;
54121;SDS011;40029;58.708;50.190;2022-07-12T14:50:59;25.88;;;17.23;;
54121;SDS011;40029;58.708;50.190;2022-07-12T14:53:30;32.50;;;18.35;;
54121;SDS011;40029;58.708;50.190;2022-07-12T14:56:01;19.02;;;16.95;;
54121;SDS011;40029;58.708;50.190;2022-07-12T14:58:33;27.35;;;17.67;;
54121;SDS011;40029;58.708;50.190;2022-07-12T15:01:04;25.98;;;16.90;;
54121;SDS011;40029;58.708;50.190;2022-07-12T15:03:35;21.05;;;16.58;;
54121;SDS011;40029;58.708;50.190;2022-07-12T15:06:06;35.47;;;18.35;;
54121;SDS011;40029;58.708;50.190;2022-07-12T15:08:37;21.40;;;16.95;;